createdAt,value
2023-03-23T15:58:24.730Z,2.05
2023-03-23T16:00:53.187Z,1.92
2023-03-23T16:03:42.738Z,1.80
2023-03-23T16:06:25.443Z,2.42
2023-03-23T16:08:54.755Z,1.63
2023-03-23T16:11:22.553Z,1.70
2023-03-23T16:13:49.590Z,1.52
2023-03-23T16:16:27.144Z,1.42
2023-03-23T16:18:54.412Z,1.52
2023-03-23T16:21:22.543Z,1.67
2023-03-23T16:23:49.493Z,1.75
2023-03-23T16:26:17.205Z,1.50
2023-03-23T16:28:44.672Z,1.25
2023-03-23T16:31:11.723Z,1.77
2023-03-23T16:33:39.600Z,1.73
2023-03-23T16:36:06.714Z,1.73
2023-03-23T16:38:33.995Z,2.13
2023-03-23T16:41:16.990Z,1.98
2023-03-23T16:43:44.009Z,2.00
2023-03-23T16:46:13.428Z,1.70
2023-03-23T16:48:40.629Z,2.00
2023-03-23T16:51:07.735Z,1.73
2023-03-23T16:53:34.622Z,1.90
2023-03-23T16:56:01.417Z,2.58
2023-03-23T16:58:28.213Z,1.88
2023-03-23T17:00:55.099Z,1.77
2023-03-23T17:03:25.369Z,1.90
2023-03-23T17:05:52.586Z,1.95
2023-03-23T17:08:20.629Z,2.47
2023-03-23T17:10:50.523Z,2.40
2023-03-23T17:13:17.581Z,2.13
2023-03-23T17:15:46.865Z,2.70
2023-03-23T17:18:20.487Z,2.70
2023-03-23T17:20:49.529Z,2.70
2023-03-23T17:23:17.673Z,2.35
2023-03-23T17:25:46.494Z,2.15
2023-03-23T17:28:13.537Z,2.17
2023-03-23T17:30:44.059Z,2.75
2023-03-23T17:33:13.999Z,2.70
2023-03-23T17:35:41.564Z,2.63
2023-03-23T17:38:08.434Z,2.50
2023-03-23T17:40:39.086Z,2.38
2023-03-23T17:43:07.033Z,2.28
2023-03-23T17:45:36.947Z,3.45
2023-03-23T17:48:07.589Z,2.97
2023-03-23T17:50:38.886Z,2.85
2023-03-23T17:53:52.887Z,2.85
2023-03-23T17:55:59.961Z,3.38
2023-03-23T17:58:38.596Z,3.30
2023-03-23T18:01:07.225Z,2.97
2023-03-23T18:03:46.243Z,3.03
2023-03-23T18:06:20.311Z,2.80
2023-03-23T18:08:58.310Z,2.72
2023-03-23T18:12:12.066Z,3.05
2023-03-23T18:14:39.980Z,3.28
2023-03-23T18:17:18.698Z,2.60
2023-03-23T18:19:47.817Z,3.10
2023-03-23T18:22:22.298Z,2.88
2023-03-23T18:25:02.567Z,3.33
2023-03-23T18:27:31.161Z,2.55
2023-03-23T18:29:58.353Z,3.10
2023-03-23T18:32:25.262Z,3.08
2023-03-23T18:34:52.166Z,2.83
2023-03-23T18:37:20.268Z,2.80
2023-03-23T18:39:47.118Z,3.13
2023-03-23T18:42:13.871Z,2.72
2023-03-23T18:44:40.719Z,2.88
2023-03-23T18:47:07.496Z,2.70
2023-03-23T18:49:34.276Z,2.60
2023-03-23T18:52:01.363Z,2.17
2023-03-23T18:54:28.776Z,2.47
2023-03-23T18:56:55.645Z,2.88
2023-03-23T18:59:30.285Z,2.53
2023-03-23T19:01:57.983Z,2.67
2023-03-23T19:04:25.173Z,2.30
2023-03-23T19:06:52.377Z,2.72
2023-03-23T19:09:19.368Z,2.47
2023-03-23T19:11:47.171Z,2.75
2023-03-23T19:14:14.358Z,2.40
2023-03-23T19:16:41.433Z,2.58
2023-03-23T19:19:08.942Z,2.83
2023-03-23T19:21:37.677Z,2.40
2023-03-23T19:24:05.264Z,2.40
2023-03-23T19:26:40.694Z,3.17
2023-03-23T19:29:26.024Z,2.65
2023-03-23T19:31:55.272Z,2.67
2023-03-23T19:34:22.384Z,3.38
2023-03-23T19:36:54.992Z,3.13
2023-03-23T19:39:26.451Z,2.75
2023-03-23T19:41:53.342Z,3.33
2023-03-23T19:44:20.296Z,3.05
2023-03-23T19:46:48.222Z,3.25
2023-03-23T19:49:15.122Z,3.80
2023-03-23T19:51:41.947Z,2.50
2023-03-23T19:54:08.932Z,3.05
2023-03-23T19:56:36.138Z,3.30
2023-03-23T19:59:04.609Z,3.92
2023-03-23T20:01:32.103Z,3.17
2023-03-23T20:04:00.265Z,3.25
2023-03-23T20:06:29.165Z,3.22
2023-03-23T20:08:59.946Z,3.13
2023-03-23T20:11:28.123Z,2.95
2023-03-23T20:13:55.427Z,3.35
2023-03-23T20:16:22.916Z,3.88
2023-03-23T20:18:50.195Z,3.28
2023-03-23T20:21:22.585Z,3.70
2023-03-23T20:23:52.400Z,3.75
2023-03-23T20:26:24.249Z,4.00
2023-03-23T20:28:51.398Z,3.75
2023-03-23T20:31:23.987Z,4.13
2023-03-23T20:34:00.773Z,3.97
2023-03-23T20:36:36.912Z,3.40
2023-03-23T20:39:12.438Z,3.65
2023-03-23T20:41:40.348Z,4.15
2023-03-23T20:44:14.120Z,4.22
2023-03-23T20:46:42.316Z,3.92
2023-03-23T20:49:10.063Z,4.50
2023-03-23T20:51:37.247Z,3.90
2023-03-23T20:54:06.928Z,4.18
2023-03-23T20:56:35.613Z,4.50
2023-03-23T20:59:03.665Z,4.15
2023-03-23T21:01:33.319Z,4.55
2023-03-23T21:04:00.566Z,4.18
2023-03-23T21:06:28.935Z,3.35
2023-03-23T21:08:57.312Z,4.30
2023-03-23T21:11:26.464Z,3.95
2023-03-23T21:13:53.649Z,3.97
2023-03-23T21:16:20.801Z,4.20
2023-03-23T21:18:47.821Z,4.13
2023-03-23T21:21:18.062Z,4.25
2023-03-23T21:23:52.676Z,4.60
2023-03-23T21:26:23.765Z,4.45
2023-03-23T21:28:53.765Z,3.70
2023-03-23T21:31:23.293Z,4.03
2023-03-23T21:33:50.458Z,3.85
2023-03-23T21:36:17.285Z,4.10
2023-03-23T21:38:44.715Z,3.58
2023-03-23T21:41:14.053Z,3.50
2023-03-23T21:43:41.249Z,3.42
2023-03-23T21:46:09.504Z,3.25
2023-03-23T21:48:38.654Z,3.17
2023-03-23T21:51:11.585Z,3.50
2023-03-23T21:53:38.730Z,3.10
2023-03-23T21:56:07.340Z,3.25
2023-03-23T21:58:34.578Z,2.92
2023-03-23T22:01:02.226Z,2.45
2023-03-23T22:03:35.364Z,3.17
2023-03-23T22:06:09.212Z,3.22
2023-03-23T22:08:37.332Z,2.75
2023-03-23T22:11:07.318Z,3.10
2023-03-23T22:13:36.080Z,2.85
2023-03-23T22:16:05.079Z,2.70
2023-03-23T22:18:33.157Z,2.88
2023-03-23T22:21:00.193Z,2.63
2023-03-23T22:23:27.555Z,3.45
2023-03-23T22:25:56.626Z,3.45
2023-03-23T22:28:26.390Z,2.45
2023-03-23T22:31:08.075Z,3.22
2023-03-23T22:33:38.528Z,3.65
2023-03-23T22:36:07.646Z,3.00
2023-03-23T22:38:37.012Z,3.35
2023-03-23T22:41:07.180Z,3.30
2023-03-23T22:43:38.709Z,3.28
2023-03-23T22:46:06.837Z,3.60
2023-03-23T22:48:41.333Z,3.85
2023-03-23T22:51:09.863Z,3.60
2023-03-23T22:53:39.088Z,3.60
2023-03-23T22:56:06.962Z,3.03
2023-03-23T22:58:34.522Z,3.47
2023-03-23T23:01:05.376Z,3.28
2023-03-23T23:03:32.865Z,3.22
2023-03-23T23:06:02.539Z,3.17
2023-03-23T23:08:40.366Z,3.50
2023-03-23T23:11:23.377Z,3.65
2023-03-23T23:14:07.542Z,2.85
2023-03-23T23:16:42.452Z,3.60
2023-03-23T23:19:20.831Z,3.67
2023-03-23T23:22:18.021Z,3.70
2023-03-23T23:24:55.254Z,4.03
2023-03-23T23:27:22.528Z,3.60
2023-03-23T23:29:56.110Z,3.25
2023-03-23T23:32:23.067Z,3.25
2023-03-23T23:34:59.654Z,3.42
2023-03-23T23:37:26.555Z,3.40
2023-03-23T23:39:59.679Z,3.88
2023-03-23T23:42:34.704Z,2.95
2023-03-23T23:45:01.901Z,3.58
2023-03-23T23:47:36.142Z,2.95
2023-03-23T23:50:04.376Z,3.40
2023-03-23T23:52:31.275Z,3.97
2023-03-23T23:55:00.364Z,2.75
2023-03-23T23:57:28.472Z,3.40
